sensor_id;sensor_type;location;lat;lon;timestamp;pressure;altitude;pressure_sealevel;temperature;humidity
47366;BME280;33105;47.964;7.982;2023-08-17T00:02:24;96783.72;;;19.79;81.88
47366;BME280;33105;47.964;7.982;2023-08-17T00:05:25;96786.13;;;19.72;82.36
47366;BME280;33105;47.964;7.982;2023-08-17T00:08:27;96783.63;;;19.62;82.43
47366;BME280;33105;47.964;7.982;2023-08-17T00:11:28;96781.19;;;19.60;83.34
47366;BME280;33105;47.964;7.982;2023-08-17T00:14:30;96779.53;;;19.59;83.92
47366;BME280;33105;47.964;7.982;2023-08-17T00:17:31;96788.03;;;19.54;83.12
47366;BME280;33105;47.964;7.982;2023-08-17T00:20:32;96783.72;;;19.48;83.19
47366;BME280;33105;47.964;7.982;2023-08-17T00:23:34;96779.22;;;19.52;83.33
47366;BME280;33105;47.964;7.982;2023-08-17T00:26:35;96777.69;;;19.46;83.42
47366;BME280;33105;47.964;7.982;2023-08-17T00:29:37;96771.94;;;19.43;83.73
47366;BME280;33105;47.964;7.982;2023-08-17T00:32:38;96772.72;;;19.34;83.19
47366;BME280;33105;47.964;7.982;2023-08-17T00:35:39;96766.81;;;19.27;83.81
47366;BME280;33105;47.964;7.982;2023-08-17T00:38:40;96762.75;;;19.25;83.93
47366;BME280;33105;47.964;7.982;2023-08-17T00:41:42;96770.72;;;19.26;83.83
47366;BME280;33105;47.964;7.982;2023-08-17T00:44:43;96771.00;;;19.16;84.39
47366;BME280;33105;47.964;7.982;2023-08-17T00:47:44;96766.38;;;19.12;84.71
47366;BME280;33105;47.964;7.982;2023-08-17T00:50:48;96761.81;;;19.38;83.11
47366;BME280;33105;47.964;7.982;2023-08-17T00:53:55;96765.84;;;19.32;82.86
47366;BME280;33105;47.964;7.982;2023-08-17T00:56:58;96768.72;;;19.18;84.10
47366;BME280;33105;47.964;7.982;2023-08-17T01:00:01;96765.53;;;19.02;85.69
47366;BME280;33105;47.964;7.982;2023-08-17T01:03:02;96768.44;;;18.97;85.34
47366;BME280;33105;47.964;7.982;2023-08-17T01:06:04;96762.63;;;19.08;85.89
47366;BME280;33105;47.964;7.982;2023-08-17T01:09:05;96769.97;;;19.12;84.83
47366;BME280;33105;47.964;7.982;2023-08-17T01:12:30;96760.09;;;19.20;83.86
47366;BME280;33105;47.964;7.982;2023-08-17T01:15:37;96760.00;;;19.02;85.28
47366;BME280;33105;47.964;7.982;2023-08-17T01:18:40;96774.16;;;19.01;85.52
47366;BME280;33105;47.964;7.982;2023-08-17T01:21:46;96772.53;;;19.00;85.28
47366;BME280;33105;47.964;7.982;2023-08-17T01:24:50;96769.38;;;18.93;86.43
47366;BME280;33105;47.964;7.982;2023-08-17T01:27:58;96770.19;;;18.93;85.54
47366;BME280;33105;47.964;7.982;2023-08-17T01:31:11;96768.25;;;18.94;85.49
47366;BME280;33105;47.964;7.982;2023-08-17T01:34:19;96769.19;;;18.89;87.06
47366;BME280;33105;47.964;7.982;2023-08-17T01:37:23;96773.34;;;18.78;87.16
47366;BME280;33105;47.964;7.982;2023-08-17T01:40:28;96777.88;;;18.74;87.04
47366;BME280;33105;47.964;7.982;2023-08-17T01:43:33;96780.53;;;18.79;87.56
47366;BME280;33105;47.964;7.982;2023-08-17T01:46:35;96788.16;;;18.82;87.20
47366;BME280;33105;47.964;7.982;2023-08-17T01:49:36;96786.81;;;18.93;86.02
47366;BME280;33105;47.964;7.982;2023-08-17T01:52:37;96781.13;;;18.98;85.20
47366;BME280;33105;47.964;7.982;2023-08-17T01:55:38;96784.66;;;18.90;85.76
47366;BME280;33105;47.964;7.982;2023-08-17T01:58:41;96783.44;;;18.83;86.48
47366;BME280;33105;47.964;7.982;2023-08-17T02:01:43;96786.06;;;18.79;86.65
47366;BME280;33105;47.964;7.982;2023-08-17T02:04:44;96783.91;;;18.76;87.11
47366;BME280;33105;47.964;7.982;2023-08-17T02:07:46;96778.81;;;18.69;88.08
47366;BME280;33105;47.964;7.982;2023-08-17T02:10:49;96785.16;;;18.70;87.31
47366;BME280;33105;47.964;7.982;2023-08-17T02:13:50;96775.34;;;18.64;87.99
47366;BME280;33105;47.964;7.982;2023-08-17T02:16:52;96778.84;;;18.56;88.69
47366;BME280;33105;47.964;7.982;2023-08-17T02:19:53;96773.75;;;18.35;88.50
47366;BME280;33105;47.964;7.982;2023-08-17T02:22:55;96769.97;;;18.31;89.89
47366;BME280;33105;47.964;7.982;2023-08-17T02:25:57;96761.25;;;18.38;89.78
47366;BME280;33105;47.964;7.982;2023-08-17T02:28:58;96761.88;;;18.35;89.33
47366;BME280;33105;47.964;7.982;2023-08-17T02:32:00;96767.41;;;18.35;89.57
47366;BME280;33105;47.964;7.982;2023-08-17T02:35:02;96754.19;;;18.32;90.16
47366;BME280;33105;47.964;7.982;2023-08-17T02:38:04;96756.97;;;18.32;89.56
47366;BME280;33105;47.964;7.982;2023-08-17T02:41:05;96760.44;;;18.38;89.20
47366;BME280;33105;47.964;7.982;2023-08-17T02:44:06;96751.63;;;18.35;89.22
47366;BME280;33105;47.964;7.982;2023-08-17T02:47:07;96753.06;;;18.33;89.00
47366;BME280;33105;47.964;7.982;2023-08-17T02:50:10;96749.31;;;18.29;90.18
47366;BME280;33105;47.964;7.982;2023-08-17T02:53:11;96752.09;;;18.15;90.79
47366;BME280;33105;47.964;7.982;2023-08-17T02:56:12;96748.59;;;18.23;91.09
47366;BME280;33105;47.964;7.982;2023-08-17T02:59:13;96743.28;;;18.27;90.76
47366;BME280;33105;47.964;7.982;2023-08-17T03:02:15;96739.53;;;18.31;90.27
47366;BME280;33105;47.964;7.982;2023-08-17T03:05:16;96738.41;;;18.32;89.31
47366;BME280;33105;47.964;7.982;2023-08-17T03:08:17;96734.22;;;18.35;89.08
47366;BME280;33105;47.964;7.982;2023-08-17T03:11:18;96731.75;;;18.33;90.39
47366;BME280;33105;47.964;7.982;2023-08-17T03:14:21;96726.88;;;18.30;89.72
47366;BME280;33105;47.964;7.982;2023-08-17T03:17:22;96731.38;;;18.26;89.94
47366;BME280;33105;47.964;7.982;2023-08-17T03:20:24;96728.72;;;18.21;91.03
47366;BME280;33105;47.964;7.982;2023-08-17T03:23:25;96727.09;;;18.20;90.67
47366;BME280;33105;47.964;7.982;2023-08-17T03:26:27;96728.84;;;18.16;91.05
47366;BME280;33105;47.964;7.982;2023-08-17T03:29:29;96734.47;;;18.11;91.27
47366;BME280;33105;47.964;7.982;2023-08-17T03:32:30;96733.34;;;18.12;90.87
47366;BME280;33105;47.964;7.982;2023-08-17T03:35:32;96732.84;;;18.10;91.05
47366;BME280;33105;47.964;7.982;2023-08-17T03:38:34;96732.47;;;18.03;91.02
47366;BME280;33105;47.964;7.982;2023-08-17T03:41:35;96727.94;;;18.07;90.03
47366;BME280;33105;47.964;7.982;2023-08-17T03:44:37;96730.84;;;18.02;90.88
47366;BME280;33105;47.964;7.982;2023-08-17T03:47:43;96733.19;;;17.95;91.04
47366;BME280;33105;47.964;7.982;2023-08-17T03:50:51;96736.47;;;17.97;91.25
47366;BME280;33105;47.964;7.982;2023-08-17T03:53:53;96731.56;;;17.94;91.73
47366;BME280;33105;47.964;7.982;2023-08-17T03:56:55;96736.06;;;17.90;91.98
47366;BME280;33105;47.964;7.982;2023-08-17T03:59:56;96742.09;;;17.92;92.11
47366;BME280;33105;47.964;7.982;2023-08-17T04:02:57;96745.47;;;17.89;93.12
47366;BME280;33105;47.964;7.982;2023-08-17T04:06:04;96746.59;;;17.88;92.36
47366;BME280;33105;47.964;7.982;2023-08-17T04:09:06;96751.25;;;17.79;92.42
47366;BME280;33105;47.964;7.982;2023-08-17T04:12:08;96748.03;;;17.85;91.68
47366;BME280;33105;47.964;7.982;2023-08-17T04:15:11;96747.66;;;17.78;91.88
47366;BME280;33105;47.964;7.982;2023-08-17T04:18:13;96755.22;;;17.73;93.04
47366;BME280;33105;47.964;7.982;2023-08-17T04:21:23;96752.78;;;17.71;92.52
47366;BME280;33105;47.964;7.982;2023-08-17T04:24:24;96762.78;;;17.67;93.08
47366;BME280;33105;47.964;7.982;2023-08-17T04:27:26;96765.31;;;17.63;93.40
47366;BME280;33105;47.964;7.982;2023-08-17T04:30:31;96767.06;;;17.59;93.65
47366;BME280;33105;47.964;7.982;2023-08-17T04:33:35;96769.50;;;17.61;93.66
47366;BME280;33105;47.964;7.982;2023-08-17T04:36:40;96756.50;;;17.61;93.59
47366;BME280;33105;47.964;7.982;2023-08-17T04:39:44;96768.81;;;17.55;94.51
47366;BME280;33105;47.964;7.982;2023-08-17T04:42:53;96763.16;;;17.60;94.57
47366;BME280;33105;47.964;7.982;2023-08-17T04:45:57;96757.63;;;17.60;94.31
47366;BME280;33105;47.964;7.982;2023-08-17T04:49:02;96757.03;;;17.63;94.00
47366;BME280;33105;47.964;7.982;2023-08-17T04:52:03;96759.53;;;17.65;93.60
47366;BME280;33105;47.964;7.982;2023-08-17T04:55:05;96758.97;;;17.63;94.29
47366;BME280;33105;47.964;7.982;2023-08-17T04:58:07;96757.63;;;17.60;94.24
47366;BME280;33105;47.964;7.982;2023-08-17T05:01:11;96752.53;;;17.54;94.72
47366;BME280;33105;47.964;7.982;2023-08-17T05:04:13;96757.13;;;17.58;94.78
47366;BME280;33105;47.964;7.982;2023-08-17T05:07:14;96763.09;;;17.65;94.74
47366;BME280;33105;47.964;7.982;2023-08-17T05:10:16;96749.47;;;17.55;94.63
47366;BME280;33105;47.964;7.982;2023-08-17T05:13:18;96759.88;;;17.58;95.82
47366;BME280;33105;47.964;7.982;2023-08-17T05:16:19;96757.75;;;17.55;94.88
47366;BME280;33105;47.964;7.982;2023-08-17T05:19:20;96761.75;;;17.63;95.38
47366;BME280;33105;47.964;7.982;2023-08-17T05:22:22;96757.47;;;17.71;94.53
47366;BME280;33105;47.964;7.982;2023-08-17T05:25:23;96756.75;;;17.79;94.18
47366;BME280;33105;47.964;7.982;2023-08-17T05:28:29;96761.66;;;17.82;94.21
47366;BME280;33105;47.964;7.982;2023-08-17T05:31:31;96759.91;;;17.86;94.13
47366;BME280;33105;47.964;7.982;2023-08-17T05:34:32;96750.19;;;17.88;94.59
47366;BME280;33105;47.964;7.982;2023-08-17T05:37:34;96757.66;;;17.88;95.51
47366;BME280;33105;47.964;7.982;2023-08-17T05:40:35;96757.25;;;17.94;95.37
47366;BME280;33105;47.964;7.982;2023-08-17T05:43:37;96760.22;;;17.98;94.61
47366;BME280;33105;47.964;7.982;2023-08-17T05:46:38;96765.44;;;17.99;94.58
47366;BME280;33105;47.964;7.982;2023-08-17T05:49:40;96766.03;;;18.10;94.74
47366;BME280;33105;47.964;7.982;2023-08-17T05:52:41;96769.59;;;18.11;94.60
47366;BME280;33105;47.964;7.982;2023-08-17T05:55:42;96769.00;;;18.50;91.39
47366;BME280;33105;47.964;7.982;2023-08-17T05:58:44;96764.72;;;18.44;92.93
47366;BME280;33105;47.964;7.982;2023-08-17T06:01:45;96766.56;;;18.48;93.38
47366;BME280;33105;47.964;7.982;2023-08-17T06:04:47;96766.47;;;18.40;93.87
47366;BME280;33105;47.964;7.982;2023-08-17T06:07:48;96762.88;;;18.39;94.77
47366;BME280;33105;47.964;7.982;2023-08-17T06:10:49;96771.06;;;18.44;95.60
47366;BME280;33105;47.964;7.982;2023-08-17T06:13:51;96761.69;;;18.67;95.43
47366;BME280;33105;47.964;7.982;2023-08-17T06:16:52;96769.50;;;18.88;93.79
47366;BME280;33105;47.964;7.982;2023-08-17T06:19:53;96764.84;;;18.75;94.97
47366;BME280;33105;47.964;7.982;2023-08-17T06:22:54;96760.81;;;18.81;95.49
47366;BME280;33105;47.964;7.982;2023-08-17T06:25:56;96759.56;;;18.87;95.51
47366;BME280;33105;47.964;7.982;2023-08-17T06:28:58;96761.00;;;18.84;95.84
47366;BME280;33105;47.964;7.982;2023-08-17T06:31:59;96756.09;;;18.81;95.63
47366;BME280;33105;47.964;7.982;2023-08-17T06:35:01;96759.63;;;18.95;95.76
47366;BME280;33105;47.964;7.982;2023-08-17T06:38:02;96757.75;;;19.05;95.37
47366;BME280;33105;47.964;7.982;2023-08-17T06:41:03;96756.06;;;19.26;94.28
47366;BME280;33105;47.964;7.982;2023-08-17T06:44:05;96763.91;;;19.32;94.26
47366;BME280;33105;47.964;7.982;2023-08-17T06:47:07;96770.31;;;19.73;91.92
47366;BME280;33105;47.964;7.982;2023-08-17T06:50:08;96770.59;;;20.02;90.57
47366;BME280;33105;47.964;7.982;2023-08-17T06:53:09;96772.91;;;20.17;90.02
47366;BME280;33105;47.964;7.982;2023-08-17T06:56:10;96770.59;;;20.02;90.08
47366;BME280;33105;47.964;7.982;2023-08-17T06:59:12;96779.31;;;19.78;90.10
47366;BME280;33105;47.964;7.982;2023-08-17T07:02:13;96774.56;;;20.35;87.47
47366;BME280;33105;47.964;7.982;2023-08-17T07:05:15;96781.13;;;20.40;88.40
47366;BME280;33105;47.964;7.982;2023-08-17T07:08:16;96781.84;;;20.14;88.82
47366;BME280;33105;47.964;7.982;2023-08-17T07:11:18;96785.88;;;19.91;89.99
47366;BME280;33105;47.964;7.982;2023-08-17T07:14:19;96783.00;;;20.13;88.09
47366;BME280;33105;47.964;7.982;2023-08-17T07:17:20;96789.97;;;20.50;85.58
47366;BME280;33105;47.964;7.982;2023-08-17T07:20:22;96793.56;;;20.51;88.74
47366;BME280;33105;47.964;7.982;2023-08-17T07:23:23;96800.03;;;20.29;88.94
47366;BME280;33105;47.964;7.982;2023-08-17T07:26:24;96793.88;;;20.58;86.25
47366;BME280;33105;47.964;7.982;2023-08-17T07:29:25;96794.28;;;20.25;88.98
47366;BME280;33105;47.964;7.982;2023-08-17T07:32:27;96801.88;;;20.68;86.74
47366;BME280;33105;47.964;7.982;2023-08-17T07:35:28;96805.78;;;20.58;86.51
47366;BME280;33105;47.964;7.982;2023-08-17T07:38:29;96805.16;;;20.53;86.82
47366;BME280;33105;47.964;7.982;2023-08-17T07:41:30;96810.22;;;20.68;89.67
47366;BME280;33105;47.964;7.982;2023-08-17T07:44:32;96814.13;;;20.50;89.02
47366;BME280;33105;47.964;7.982;2023-08-17T07:47:34;96813.16;;;20.71;89.83
47366;BME280;33105;47.964;7.982;2023-08-17T07:50:39;96820.97;;;21.13;88.74
47366;BME280;33105;47.964;7.982;2023-08-17T07:53:40;96819.84;;;21.31;87.69
47366;BME280;33105;47.964;7.982;2023-08-17T07:56:41;96818.28;;;21.68;83.31
47366;BME280;33105;47.964;7.982;2023-08-17T07:59:42;96815.50;;;21.77;86.22
47366;BME280;33105;47.964;7.982;2023-08-17T08:02:43;96826.47;;;21.73;86.88
47366;BME280;33105;47.964;7.982;2023-08-17T08:05:45;96832.34;;;21.71;85.27
47366;BME280;33105;47.964;7.982;2023-08-17T08:08:46;96832.69;;;22.17;85.15
47366;BME280;33105;47.964;7.982;2023-08-17T08:11:47;96848.41;;;21.57;86.60
47366;BME280;33105;47.964;7.982;2023-08-17T08:14:48;96848.88;;;21.68;88.92
47366;BME280;33105;47.964;7.982;2023-08-17T08:17:50;96843.31;;;21.68;88.49
47366;BME280;33105;47.964;7.982;2023-08-17T08:20:51;96836.31;;;22.09;89.67
47366;BME280;33105;47.964;7.982;2023-08-17T08:23:52;96846.19;;;21.89;87.66
47366;BME280;33105;47.964;7.982;2023-08-17T08:26:54;96854.94;;;21.61;90.24
47366;BME280;33105;47.964;7.982;2023-08-17T08:29:55;96857.72;;;21.61;89.02
47366;BME280;33105;47.964;7.982;2023-08-17T08:32:57;96848.31;;;22.00;89.50
47366;BME280;33105;47.964;7.982;2023-08-17T08:35:59;96845.69;;;22.33;87.88
47366;BME280;33105;47.964;7.982;2023-08-17T08:39:00;96854.44;;;22.23;88.17
47366;BME280;33105;47.964;7.982;2023-08-17T08:42:01;96853.50;;;22.11;88.93
47366;BME280;33105;47.964;7.982;2023-08-17T08:45:03;96851.19;;;22.13;89.50
47366;BME280;33105;47.964;7.982;2023-08-17T08:48:05;96848.88;;;22.23;89.15
47366;BME280;33105;47.964;7.982;2023-08-17T08:51:08;96859.28;;;22.64;86.54
47366;BME280;33105;47.964;7.982;2023-08-17T08:54:14;96863.94;;;22.52;87.95
47366;BME280;33105;47.964;7.982;2023-08-17T08:57:19;96865.81;;;22.39;88.71
47366;BME280;33105;47.964;7.982;2023-08-17T09:00:20;96861.69;;;22.45;88.64
47366;BME280;33105;47.964;7.982;2023-08-17T09:03:22;96852.00;;;22.13;90.36
47366;BME280;33105;47.964;7.982;2023-08-17T09:06:25;96859.78;;;21.82;90.15
47366;BME280;33105;47.964;7.982;2023-08-17T09:09:27;96846.69;;;21.91;91.26
47366;BME280;33105;47.964;7.982;2023-08-17T09:12:29;96840.53;;;21.68;90.82
47366;BME280;33105;47.964;7.982;2023-08-17T09:15:31;96847.84;;;21.81;91.89
47366;BME280;33105;47.964;7.982;2023-08-17T09:18:32;96841.72;;;22.05;91.97
47366;BME280;33105;47.964;7.982;2023-08-17T09:21:35;96831.75;;;22.04;90.98
47366;BME280;33105;47.964;7.982;2023-08-17T09:24:36;96830.72;;;22.17;91.25
47366;BME280;33105;47.964;7.982;2023-08-17T09:27:38;96834.47;;;22.21;92.61
47366;BME280;33105;47.964;7.982;2023-08-17T09:33:56;96830.91;;;23.13;85.57
47366;BME280;33105;47.964;7.982;2023-08-17T09:37:02;96826.25;;;22.54;88.10
47366;BME280;33105;47.964;7.982;2023-08-17T09:40:04;96822.22;;;22.43;88.34
47366;BME280;33105;47.964;7.982;2023-08-17T09:43:05;96819.91;;;22.74;88.93
47366;BME280;33105;47.964;7.982;2023-08-17T09:46:06;96831.38;;;22.73;86.57
47366;BME280;33105;47.964;7.982;2023-08-17T09:49:09;96835.16;;;22.98;86.17
47366;BME280;33105;47.964;7.982;2023-08-17T09:52:10;96835.00;;;23.15;85.54
47366;BME280;33105;47.964;7.982;2023-08-17T09:55:12;96832.91;;;23.45;86.54
47366;BME280;33105;47.964;7.982;2023-08-17T09:58:14;96825.69;;;23.44;86.08
47366;BME280;33105;47.964;7.982;2023-08-17T10:01:18;96817.56;;;23.84;86.32
47366;BME280;33105;47.964;7.982;2023-08-17T10:04:21;96819.13;;;23.94;83.50
47366;BME280;33105;47.964;7.982;2023-08-17T10:07:30;96814.47;;;24.22;84.30
47366;BME280;33105;47.964;7.982;2023-08-17T10:10:35;96816.44;;;24.09;83.13
47366;BME280;33105;47.964;7.982;2023-08-17T10:13:48;96816.66;;;23.92;81.46
47366;BME280;33105;47.964;7.982;2023-08-17T10:17:01;96814.72;;;24.17;80.83
47366;BME280;33105;47.964;7.982;2023-08-17T10:20:05;96813.31;;;24.11;83.48
47366;BME280;33105;47.964;7.982;2023-08-17T10:23:22;96807.88;;;24.39;82.15
47366;BME280;33105;47.964;7.982;2023-08-17T10:26:24;96812.28;;;24.40;79.88
47366;BME280;33105;47.964;7.982;2023-08-17T10:29:28;96805.97;;;24.55;80.13
47366;BME280;33105;47.964;7.982;2023-08-17T10:32:30;96806.72;;;24.40;74.51
47366;BME280;33105;47.964;7.982;2023-08-17T10:35:33;96798.41;;;24.56;75.45
47366;BME280;33105;47.964;7.982;2023-08-17T10:38:35;96793.06;;;24.63;74.96
47366;BME280;33105;47.964;7.982;2023-08-17T10:41:46;96797.56;;;24.80;74.88
47366;BME280;33105;47.964;7.982;2023-08-17T10:44:48;96788.13;;;24.96;72.27
47366;BME280;33105;47.964;7.982;2023-08-17T10:47:49;96792.28;;;25.02;65.28
47366;BME280;33105;47.964;7.982;2023-08-17T10:51:02;96788.28;;;25.16;65.45
47366;BME280;33105;47.964;7.982;2023-08-17T10:54:04;96787.34;;;25.12;63.03
47366;BME280;33105;47.964;7.982;2023-08-17T11:00:34;96777.44;;;25.42;63.68
47366;BME280;33105;47.964;7.982;2023-08-17T11:03:36;96767.53;;;25.45;61.59
47366;BME280;33105;47.964;7.982;2023-08-17T11:06:37;96758.50;;;25.51;59.85
47366;BME280;33105;47.964;7.982;2023-08-17T11:09:38;96749.47;;;25.58;56.83
47366;BME280;33105;47.964;7.982;2023-08-17T11:12:42;96740.50;;;25.80;58.98
47366;BME280;33105;47.964;7.982;2023-08-17T11:15:44;96736.44;;;25.93;55.92
47366;BME280;33105;47.964;7.982;2023-08-17T11:18:49;96734.78;;;26.08;55.02
47366;BME280;33105;47.964;7.982;2023-08-17T11:21:51;96735.50;;;26.05;54.51
47366;BME280;33105;47.964;7.982;2023-08-17T11:24:52;96730.00;;;26.08;53.30
47366;BME280;33105;47.964;7.982;2023-08-17T11:27:54;96728.66;;;26.18;53.70
47366;BME280;33105;47.964;7.982;2023-08-17T11:30:59;96734.59;;;26.32;54.26
47366;BME280;33105;47.964;7.982;2023-08-17T11:34:00;96742.91;;;26.45;54.32
47366;BME280;33105;47.964;7.982;2023-08-17T11:37:01;96734.88;;;26.62;54.51
47366;BME280;33105;47.964;7.982;2023-08-17T11:40:03;96732.25;;;26.69;52.51
47366;BME280;33105;47.964;7.982;2023-08-17T11:43:05;96732.97;;;26.66;50.01
47366;BME280;33105;47.964;7.982;2023-08-17T11:46:06;96724.13;;;26.84;49.68
47366;BME280;33105;47.964;7.982;2023-08-17T11:49:08;96728.72;;;26.92;49.37
47366;BME280;33105;47.964;7.982;2023-08-17T11:52:09;96724.31;;;27.10;51.88
47366;BME280;33105;47.964;7.982;2023-08-17T11:55:16;96722.09;;;27.19;52.57
47366;BME280;33105;47.964;7.982;2023-08-17T11:58:18;96711.66;;;27.39;49.29
47366;BME280;33105;47.964;7.982;2023-08-17T12:01:20;96710.06;;;27.19;46.23
47366;BME280;33105;47.964;7.982;2023-08-17T12:04:22;96707.25;;;27.19;47.99
47366;BME280;33105;47.964;7.982;2023-08-17T12:07:24;96703.22;;;26.97;47.00
47366;BME280;33105;47.964;7.982;2023-08-17T12:10:36;96707.69;;;27.01;48.70
47366;BME280;33105;47.964;7.982;2023-08-17T12:13:38;96709.00;;;27.27;46.67
47366;BME280;33105;47.964;7.982;2023-08-17T12:16:48;96701.06;;;27.09;47.01
47366;BME280;33105;47.964;7.982;2023-08-17T12:19:53;96714.66;;;27.07;47.57
47366;BME280;33105;47.964;7.982;2023-08-17T12:22:57;96690.44;;;26.99;45.36
47366;BME280;33105;47.964;7.982;2023-08-17T12:25:58;96692.66;;;26.90;46.53
47366;BME280;33105;47.964;7.982;2023-08-17T12:29:00;96692.72;;;26.94;46.02
47366;BME280;33105;47.964;7.982;2023-08-17T12:32:01;96689.78;;;27.06;46.43
47366;BME280;33105;47.964;7.982;2023-08-17T12:35:03;96694.78;;;26.77;47.10
47366;BME280;33105;47.964;7.982;2023-08-17T12:38:04;96693.75;;;27.05;48.82
47366;BME280;33105;47.964;7.982;2023-08-17T12:41:06;96687.34;;;27.04;48.39
47366;BME280;33105;47.964;7.982;2023-08-17T12:44:09;96682.88;;;27.23;48.40
47366;BME280;33105;47.964;7.982;2023-08-17T12:47:10;96692.63;;;27.29;48.10
47366;BME280;33105;47.964;7.982;2023-08-17T12:50:11;96697.94;;;27.34;48.44
47366;BME280;33105;47.964;7.982;2023-08-17T12:53:12;96697.09;;;27.10;49.87
47366;BME280;33105;47.964;7.982;2023-08-17T12:56:14;96693.28;;;27.41;46.86
47366;BME280;33105;47.964;7.982;2023-08-17T12:59:15;96695.72;;;27.24;51.25
47366;BME280;33105;47.964;7.982;2023-08-17T13:02:16;96701.34;;;27.04;50.73
47366;BME280;33105;47.964;7.982;2023-08-17T13:05:17;96695.72;;;27.24;49.21
47366;BME280;33105;47.964;7.982;2023-08-17T13:08:18;96695.75;;;27.04;51.80
47366;BME280;33105;47.964;7.982;2023-08-17T13:11:20;96692.50;;;26.83;49.58
47366;BME280;33105;47.964;7.982;2023-08-17T13:14:21;96695.72;;;27.24;51.05
47366;BME280;33105;47.964;7.982;2023-08-17T13:22:59;96703.53;;;27.34;50.49
47366;BME280;33105;47.964;7.982;2023-08-17T13:27:56;96691.06;;;27.54;51.12
47366;BME280;33105;47.964;7.982;2023-08-17T13:42:22;96695.47;;;27.09;53.10
47366;BME280;33105;47.964;7.982;2023-08-17T14:06:57;96688.78;;;26.95;53.53
47366;BME280;33105;47.964;7.982;2023-08-17T14:45:15;96674.03;;;26.82;54.93
47366;BME280;33105;47.964;7.982;2023-08-17T15:18:48;96652.28;;;26.75;57.09
47366;BME280;33105;47.964;7.982;2023-08-17T15:27:48;96652.44;;;26.44;56.61
47366;BME280;33105;47.964;7.982;2023-08-17T15:31:13;96646.84;;;26.28;60.83
47366;BME280;33105;47.964;7.982;2023-08-17T15:34:14;96650.25;;;26.18;59.47
47366;BME280;33105;47.964;7.982;2023-08-17T15:37:16;96644.97;;;26.32;58.72
47366;BME280;33105;47.964;7.982;2023-08-17T15:40:17;96647.78;;;26.32;60.03
47366;BME280;33105;47.964;7.982;2023-08-17T15:43:18;96646.16;;;26.31;61.85
47366;BME280;33105;47.964;7.982;2023-08-17T15:46:19;96640.66;;;26.19;64.34
47366;BME280;33105;47.964;7.982;2023-08-17T15:49:21;96638.44;;;26.28;58.59
47366;BME280;33105;47.964;7.982;2023-08-17T15:52:22;96646.03;;;26.43;57.28
47366;BME280;33105;47.964;7.982;2023-08-17T15:55:26;96644.41;;;26.27;64.81
47366;BME280;33105;47.964;7.982;2023-08-17T15:58:28;96637.41;;;26.17;64.53
47366;BME280;33105;47.964;7.982;2023-08-17T16:01:29;96635.44;;;26.02;62.28
47366;BME280;33105;47.964;7.982;2023-08-17T16:04:30;96633.69;;;25.94;61.98
47366;BME280;33105;47.964;7.982;2023-08-17T16:07:32;96635.13;;;25.88;65.20
47366;BME280;33105;47.964;7.982;2023-08-17T16:10:33;96631.25;;;25.76;65.91
47366;BME280;33105;47.964;7.982;2023-08-17T16:43:01;96612.41;;;25.42;72.35
47366;BME280;33105;47.964;7.982;2023-08-17T20:45:37;96687.88;;;20.90;68.46
47366;BME280;33105;47.964;7.982;2023-08-17T20:50:28;96692.47;;;20.78;70.02
47366;BME280;33105;47.964;7.982;2023-08-17T21:00:08;96683.41;;;21.06;65.70
47366;BME280;33105;47.964;7.982;2023-08-17T21:58:12;96670.66;;;21.05;64.29
47366;BME280;33105;47.964;7.982;2023-08-17T22:08:02;96684.75;;;20.83;66.17
47366;BME280;33105;47.964;7.982;2023-08-17T22:12:34;96676.97;;;20.68;66.58
47366;BME280;33105;47.964;7.982;2023-08-17T22:15:36;96680.06;;;20.66;66.72
47366;BME280;33105;47.964;7.982;2023-08-17T22:18:38;96673.38;;;20.59;65.24
47366;BME280;33105;47.964;7.982;2023-08-17T22:21:39;96670.31;;;20.52;67.13
47366;BME280;33105;47.964;7.982;2023-08-17T22:24:40;96673.72;;;20.49;67.28
47366;BME280;33105;47.964;7.982;2023-08-17T22:27:43;96672.56;;;20.41;67.48
47366;BME280;33105;47.964;7.982;2023-08-17T22:30:44;96667.31;;;20.31;67.94
47366;BME280;33105;47.964;7.982;2023-08-17T22:33:45;96667.19;;;20.27;67.21
47366;BME280;33105;47.964;7.982;2023-08-17T22:36:46;96667.00;;;20.24;67.20
47366;BME280;33105;47.964;7.982;2023-08-17T22:39:48;96667.31;;;20.05;67.87
47366;BME280;33105;47.964;7.982;2023-08-17T22:42:49;96669.44;;;20.08;66.34
47366;BME280;33105;47.964;7.982;2023-08-17T22:45:51;96668.94;;;19.97;67.39
47366;BME280;33105;47.964;7.982;2023-08-17T22:48:52;96665.66;;;19.87;68.77
47366;BME280;33105;47.964;7.982;2023-08-17T22:51:53;96670.06;;;19.88;67.77
47366;BME280;33105;47.964;7.982;2023-08-17T22:54:55;96676.09;;;19.90;66.77
47366;BME280;33105;47.964;7.982;2023-08-17T22:57:56;96677.75;;;19.91;65.75
47366;BME280;33105;47.964;7.982;2023-08-17T23:00:57;96675.25;;;19.72;67.53
47366;BME280;33105;47.964;7.982;2023-08-17T23:03:59;96677.06;;;19.77;68.15
47366;BME280;33105;47.964;7.982;2023-08-17T23:07:00;96674.94;;;19.74;69.28
47366;BME280;33105;47.964;7.982;2023-08-17T23:10:01;96674.13;;;19.82;69.01
47366;BME280;33105;47.964;7.982;2023-08-17T23:13:03;96672.84;;;19.79;68.41
47366;BME280;33105;47.964;7.982;2023-08-17T23:16:04;96666.44;;;19.70;69.13
47366;BME280;33105;47.964;7.982;2023-08-17T23:19:06;96667.59;;;19.69;70.57
47366;BME280;33105;47.964;7.982;2023-08-17T23:22:07;96664.78;;;19.60;68.53
47366;BME280;33105;47.964;7.982;2023-08-17T23:25:08;96672.03;;;19.39;68.69
47366;BME280;33105;47.964;7.982;2023-08-17T23:28:09;96661.94;;;19.43;68.73
47366;BME280;33105;47.964;7.982;2023-08-17T23:31:11;96663.72;;;19.39;71.03
47366;BME280;33105;47.964;7.982;2023-08-17T23:34:12;96659.13;;;19.26;69.76
47366;BME280;33105;47.964;7.982;2023-08-17T23:37:13;96659.94;;;19.26;69.86
47366;BME280;33105;47.964;7.982;2023-08-17T23:40:15;96652.59;;;19.22;70.45
47366;BME280;33105;47.964;7.982;2023-08-17T23:43:16;96655.31;;;19.13;70.89
47366;BME280;33105;47.964;7.982;2023-08-17T23:46:17;96661.16;;;19.12;70.88